createdAt,value
2022-11-30T07:38:02.662Z,56
2022-11-30T07:41:02.000Z,50
2022-11-30T07:43:27.292Z,50
2022-11-30T07:45:53.346Z,50
2022-11-30T07:48:18.526Z,56
2022-11-30T07:50:43.631Z,56
2022-11-30T07:53:09.738Z,61
2022-11-30T07:55:35.822Z,61
2022-11-30T07:58:01.908Z,67
2022-11-30T08:00:28.020Z,67
2022-11-30T08:02:54.113Z,67
2022-11-30T08:05:21.423Z,73
2022-11-30T08:07:46.313Z,73
2022-11-30T08:10:12.423Z,67
2022-11-30T08:12:38.535Z,50
2022-11-30T08:15:04.587Z,45
2022-11-30T08:17:30.681Z,39
2022-11-30T08:19:56.772Z,45
2022-11-30T08:22:22.076Z,50
2022-11-30T08:24:47.970Z,61
2022-11-30T08:27:14.314Z,73
2022-11-30T08:29:40.186Z,73
2022-11-30T08:32:06.461Z,78
2022-11-30T08:34:32.625Z,95
2022-11-30T08:36:58.646Z,106
2022-11-30T08:39:23.771Z,112
2022-11-30T08:41:48.818Z,118
2022-11-30T08:44:14.914Z,118
2022-11-30T08:46:41.095Z,129
2022-11-30T08:49:07.130Z,129
2022-11-30T08:51:33.221Z,106
2022-11-30T08:53:59.333Z,90
2022-11-30T08:56:25.451Z,90
2022-11-30T08:58:51.375Z,95
2022-11-30T09:01:17.661Z,95
2022-11-30T09:03:43.775Z,95
2022-11-30T09:06:09.853Z,95
2022-11-30T09:08:35.896Z,112
2022-11-30T09:11:02.022Z,118
2022-11-30T09:13:27.099Z,112
2022-11-30T09:15:53.058Z,101
2022-11-30T09:18:19.241Z,112
2022-11-30T09:20:45.260Z,118
2022-11-30T09:23:11.353Z,112
2022-11-30T09:25:37.448Z,118
2022-11-30T09:28:03.677Z,123
2022-11-30T09:30:28.796Z,129
2022-11-30T09:32:53.848Z,140
2022-11-30T09:35:20.032Z,151
2022-11-30T09:37:46.029Z,163
2022-11-30T09:40:12.251Z,185
2022-11-30T09:42:38.148Z,185
2022-11-30T09:45:04.307Z,196
2022-11-30T09:47:30.511Z,219
2022-11-30T09:49:56.617Z,213
2022-11-30T09:52:22.588Z,196
2022-11-30T09:54:48.885Z,168
2022-11-30T09:57:14.907Z,151
2022-11-30T09:59:41.061Z,163
2022-11-30T10:02:07.125Z,174
2022-11-30T10:04:32.203Z,180
2022-11-30T10:06:58.278Z,196
2022-11-30T10:09:24.374Z,185
2022-11-30T10:11:50.484Z,180
2022-11-30T10:14:16.588Z,185
2022-11-30T10:16:42.711Z,180
2022-11-30T10:19:08.613Z,168
2022-11-30T10:21:33.923Z,174
2022-11-30T10:23:58.973Z,168
2022-11-30T10:26:24.145Z,157
2022-11-30T10:28:49.260Z,151
2022-11-30T10:31:15.327Z,157
2022-11-30T10:33:41.404Z,157
2022-11-30T10:38:33.494Z,157
2022-11-30T10:40:59.572Z,157
2022-11-30T10:43:25.643Z,163
2022-11-30T10:45:51.942Z,163
2022-11-30T10:48:17.994Z,151
2022-11-30T10:50:44.013Z,151
2022-11-30T10:53:10.082Z,151
2022-11-30T10:55:36.278Z,157
2022-11-30T10:58:02.351Z,168
2022-11-30T11:00:27.506Z,174
2022-11-30T11:02:53.595Z,174
2022-11-30T11:05:19.684Z,157
2022-11-30T11:07:45.628Z,151
2022-11-30T11:10:11.820Z,146
2022-11-30T11:12:37.977Z,168
2022-11-30T11:15:03.935Z,185
2022-11-30T11:17:30.010Z,196
2022-11-30T11:19:55.279Z,202
2022-11-30T11:22:20.427Z,208
2022-11-30T11:24:45.447Z,208
2022-11-30T11:27:10.466Z,202
2022-11-30T11:29:36.724Z,191
2022-11-30T11:32:02.756Z,185
2022-11-30T11:34:28.809Z,180
2022-11-30T11:36:54.983Z,168
2022-11-30T11:39:21.073Z,163
2022-11-30T11:41:47.152Z,151
2022-11-30T11:44:13.356Z,151
2022-11-30T11:46:39.363Z,140
2022-11-30T11:49:05.458Z,140
2022-11-30T11:51:31.561Z,140
2022-11-30T11:53:57.732Z,135
2022-11-30T11:56:23.895Z,140
2022-11-30T11:58:48.887Z,146
2022-11-30T12:01:15.015Z,146
2022-11-30T12:03:41.111Z,151
2022-11-30T12:06:07.195Z,146
2022-11-30T12:08:33.185Z,151
2022-11-30T12:10:59.398Z,129
2022-11-30T12:13:25.454Z,129
2022-11-30T12:15:50.460Z,135
2022-11-30T12:18:15.582Z,146
2022-11-30T12:20:41.743Z,146
2022-11-30T12:23:07.910Z,135
2022-11-30T12:25:33.863Z,135
2022-11-30T12:27:59.968Z,123
2022-11-30T12:30:26.086Z,106
2022-11-30T12:32:52.156Z,106
2022-11-30T12:35:18.330Z,123
2022-11-30T12:37:44.319Z,123
2022-11-30T12:40:10.429Z,123
2022-11-30T12:42:36.516Z,118
2022-11-30T12:45:02.676Z,106
2022-11-30T12:47:28.821Z,101
2022-11-30T12:49:53.983Z,90
2022-11-30T12:52:20.168Z,78
2022-11-30T12:54:46.092Z,67
2022-11-30T12:57:12.174Z,73
2022-11-30T12:59:38.209Z,73
2022-11-30T13:02:04.315Z,67
2022-11-30T13:04:30.467Z,50
2022-11-30T13:06:55.670Z,45
2022-11-30T13:09:20.650Z,45
2022-11-30T13:11:46.847Z,39
2022-11-30T13:14:12.886Z,33
2022-11-30T13:16:39.019Z,28
2022-11-30T13:19:05.039Z,22
2022-11-30T13:21:31.219Z,28
2022-11-30T13:23:57.240Z,22
2022-11-30T13:26:23.414Z,28
2022-11-30T13:28:49.422Z,45
2022-11-30T13:31:15.616Z,56
2022-11-30T13:33:41.586Z,50
2022-11-30T13:36:07.713Z,45
2022-11-30T13:38:33.817Z,50
2022-11-30T13:40:58.888Z,45
2022-11-30T13:43:25.004Z,39
2022-11-30T13:45:51.100Z,39
2022-11-30T13:48:17.190Z,39
2022-11-30T13:50:43.291Z,45
2022-11-30T13:53:09.392Z,50
2022-11-30T13:55:35.496Z,50
2022-11-30T13:58:00.640Z,56
2022-11-30T14:00:25.706Z,56
2022-11-30T14:02:51.809Z,56
2022-11-30T14:05:17.894Z,50
2022-11-30T14:07:43.993Z,39
2022-11-30T14:10:10.084Z,33
2022-11-30T14:12:36.190Z,33
2022-11-30T14:15:02.289Z,33
2022-11-30T14:17:28.373Z,33
2022-11-30T14:19:54.573Z,33
2022-11-30T14:22:20.564Z,33
2022-11-30T14:24:46.667Z,33
2022-11-30T14:27:12.775Z,28
2022-11-30T14:29:38.966Z,28
2022-11-30T14:32:03.975Z,22
2022-11-30T14:34:30.180Z,16
2022-11-30T14:36:56.244Z,22
2022-11-30T14:39:22.252Z,22
2022-11-30T14:41:48.347Z,16
2022-11-30T14:44:14.538Z,16
2022-11-30T14:46:40.581Z,16
2022-11-30T14:49:05.660Z,16
2022-11-30T14:51:30.785Z,16
2022-11-30T14:53:55.923Z,16
2022-11-30T14:56:21.012Z,11
2022-11-30T14:58:46.137Z,11
2022-11-30T15:01:11.254Z,5
2022-11-30T15:03:36.384Z,5
2022-11-30T15:06:01.559Z,5
2022-11-30T15:08:27.659Z,5
2022-11-30T15:10:53.808Z,5
2022-11-30T15:13:19.956Z,0
2022-11-30T15:15:45.895Z,0
2022-11-30T15:18:12.015Z,0
2022-11-30T15:20:38.252Z,0
2022-11-30T15:23:04.217Z,0
2022-11-30T15:25:30.269Z,0
2022-11-30T15:27:56.418Z,0
2022-11-30T15:30:22.447Z,0
2022-11-30T15:32:48.545Z,0
2022-11-30T15:35:14.677Z,0
2022-11-30T15:37:39.809Z,0
2022-11-30T15:40:05.850Z,0
2022-11-30T15:42:31.962Z,0
2022-11-30T15:44:58.040Z,0
2022-11-30T15:47:24.127Z,0
2022-11-30T15:49:49.367Z,0
2022-11-30T15:52:15.410Z,0
2022-11-30T15:54:40.486Z,0
2022-11-30T15:57:05.699Z,0
2022-11-30T15:59:30.762Z,0
2022-11-30T16:01:55.831Z,0
2022-11-30T16:04:21.923Z,0
2022-11-30T16:06:48.025Z,0
2022-11-30T16:09:14.120Z,0
2022-11-30T16:11:40.212Z,0
2022-11-30T16:14:06.300Z,0
2022-11-30T16:16:32.389Z,0
2022-11-30T16:18:58.492Z,0
2022-11-30T16:21:24.782Z,0
2022-11-30T16:23:50.689Z,0
2022-11-30T16:26:16.768Z,0
2022-11-30T16:28:42.947Z,0
2022-11-30T16:31:09.127Z,0
2022-11-30T16:33:34.085Z,0
2022-11-30T16:36:00.279Z,0
2022-11-30T16:38:26.273Z,0
2022-11-30T16:40:52.432Z,0
2022-11-30T16:43:18.553Z,0
2022-11-30T16:45:44.546Z,0
2022-11-30T16:48:10.650Z,0
2022-11-30T16:50:35.787Z,0
2022-11-30T16:53:00.923Z,0
2022-11-30T16:55:27.006Z,0
2022-11-30T16:57:53.072Z,0
2022-11-30T17:00:19.177Z,0
2022-11-30T17:02:45.274Z,0
2022-11-30T17:05:11.380Z,0
2022-11-30T17:07:37.509Z,0
2022-11-30T17:10:03.574Z,0
2022-11-30T17:12:29.739Z,0
2022-11-30T17:14:55.765Z,0
2022-11-30T17:17:21.862Z,0
2022-11-30T17:19:47.948Z,0
2022-11-30T17:22:14.044Z,0
2022-11-30T17:24:39.139Z,0
2022-11-30T17:27:05.256Z,0
2022-11-30T17:29:31.335Z,0
2022-11-30T17:31:57.450Z,0
2022-11-30T17:34:23.534Z,0
2022-11-30T17:36:49.635Z,0
2022-11-30T17:39:15.782Z,0
2022-11-30T17:41:41.819Z,0
2022-11-30T17:44:07.928Z,0
2022-11-30T17:46:34.027Z,0
2022-11-30T17:49:00.143Z,0
2022-11-30T17:51:26.281Z,0
2022-11-30T17:53:52.311Z,0
2022-11-30T17:56:18.432Z,0
2022-11-30T17:58:44.610Z,0
2022-11-30T18:01:10.697Z,0
2022-11-30T18:03:35.716Z,0
2022-11-30T18:06:01.827Z,0
2022-11-30T18:08:27.904Z,0
2022-11-30T18:10:53.046Z,0
2022-11-30T18:13:19.253Z,0
2022-11-30T18:15:45.224Z,0
2022-11-30T18:18:11.344Z,0
2022-11-30T18:20:37.495Z,0
2022-11-30T18:23:03.612Z,0
2022-11-30T18:25:29.669Z,0
2022-11-30T18:27:55.704Z,0
2022-11-30T18:30:21.793Z,0
2022-11-30T18:32:48.030Z,0
2022-11-30T18:35:14.016Z,0
2022-11-30T18:37:40.198Z,0
2022-11-30T18:40:06.309Z,0
2022-11-30T18:42:31.355Z,0
2022-11-30T18:44:57.421Z,0
2022-11-30T18:47:23.632Z,0
2022-11-30T18:49:49.702Z,0
2022-11-30T18:52:15.740Z,0
2022-11-30T18:54:40.816Z,0
2022-11-30T18:57:06.028Z,0
2022-11-30T18:59:31.180Z,0
2022-11-30T19:01:56.191Z,0
2022-11-30T19:04:21.368Z,0
2022-11-30T19:06:46.496Z,0
2022-11-30T19:09:12.517Z,0
2022-11-30T19:11:38.575Z,0
2022-11-30T19:14:04.663Z,0
2022-11-30T19:16:30.766Z,0
2022-11-30T19:18:56.844Z,0
2022-11-30T19:21:22.954Z,0
2022-11-30T19:23:49.035Z,0
2022-11-30T19:26:15.153Z,0
2022-11-30T19:28:41.233Z,0
2022-11-30T19:31:07.337Z,0
2022-11-30T19:33:33.428Z,0
2022-11-30T19:35:59.702Z,0
2022-11-30T19:38:24.686Z,0
2022-11-30T19:40:50.729Z,0
2022-11-30T19:43:16.839Z,0
2022-11-30T19:45:42.923Z,0
2022-11-30T19:48:09.024Z,0
2022-11-30T19:50:35.172Z,0
2022-11-30T19:53:01.299Z,0
2022-11-30T19:55:26.397Z,0
2022-11-30T19:57:51.460Z,0
2022-11-30T20:00:17.535Z,0
2022-11-30T20:02:43.726Z,0
2022-11-30T20:05:09.889Z,0
2022-11-30T20:10:01.961Z,0
2022-11-30T20:12:28.103Z,0
2022-11-30T20:14:54.221Z,0
2022-11-30T20:17:20.389Z,0
2022-11-30T20:19:46.435Z,0
2022-11-30T20:22:12.517Z,0
2022-11-30T20:24:38.610Z,0
2022-11-30T20:27:04.768Z,0
2022-11-30T20:29:30.886Z,0
2022-11-30T20:31:56.890Z,0
2022-11-30T20:34:22.912Z,0
2022-11-30T20:36:49.073Z,0
2022-11-30T20:39:15.173Z,0
2022-11-30T20:41:41.405Z,0
2022-11-30T20:44:06.435Z,0
2022-11-30T20:46:32.618Z,0
2022-11-30T20:48:57.557Z,0
2022-11-30T20:51:22.619Z,0
2022-11-30T20:53:47.815Z,0
2022-11-30T20:56:12.956Z,0
2022-11-30T20:58:38.949Z,0
2022-11-30T21:01:05.058Z,0
2022-11-30T21:03:31.135Z,0
2022-11-30T21:05:57.264Z,0
2022-11-30T21:08:23.327Z,0
2022-11-30T21:10:49.500Z,0
2022-11-30T21:13:15.510Z,0
2022-11-30T21:15:41.655Z,0
2022-11-30T21:18:07.704Z,0
2022-11-30T21:20:33.861Z,0
2022-11-30T21:22:59.894Z,0
2022-11-30T21:25:26.015Z,0
2022-11-30T21:27:51.120Z,0
2022-11-30T21:30:17.213Z,0
2022-11-30T21:32:43.306Z,0
2022-11-30T21:35:09.467Z,0
2022-11-30T21:37:35.518Z,0
2022-11-30T21:40:01.586Z,0
2022-11-30T21:42:27.690Z,0
2022-11-30T21:44:52.942Z,0
2022-11-30T21:47:18.020Z,0
2022-11-30T21:49:44.145Z,0
2022-11-30T21:52:10.105Z,0
2022-11-30T21:54:36.250Z,0
2022-11-30T21:57:02.313Z,0
2022-11-30T21:59:28.479Z,0
2022-11-30T22:01:54.496Z,0
2022-11-30T22:04:20.585Z,0
2022-11-30T22:06:46.862Z,0
2022-11-30T22:09:12.850Z,0
2022-11-30T22:11:38.884Z,0
2022-11-30T22:14:05.016Z,0
2022-11-30T22:16:31.083Z,0
2022-11-30T22:18:56.317Z,0
2022-11-30T22:21:22.272Z,0
2022-11-30T22:23:48.459Z,0
2022-11-30T22:26:14.469Z,0
2022-11-30T22:28:40.610Z,0
2022-11-30T22:31:06.696Z,0
2022-11-30T22:33:32.776Z,0
2022-11-30T22:35:57.883Z,0
2022-11-30T22:38:22.981Z,0
2022-11-30T22:40:49.086Z,0
2022-11-30T22:43:15.180Z,0
2022-11-30T22:45:41.278Z,0
2022-11-30T22:48:06.403Z,0
2022-11-30T22:50:31.506Z,0
2022-11-30T22:52:57.617Z,0
2022-11-30T22:55:23.704Z,0
2022-11-30T22:57:49.801Z,0
2022-11-30T23:00:15.877Z,0
2022-11-30T23:02:41.988Z,0
2022-11-30T23:05:08.090Z,0
2022-11-30T23:07:34.178Z,0
2022-11-30T23:10:00.291Z,0
2022-11-30T23:12:26.402Z,0
2022-11-30T23:14:52.476Z,0
2022-11-30T23:17:18.634Z,0
2022-11-30T23:19:44.660Z,0
2022-11-30T23:22:09.885Z,0
2022-11-30T23:24:35.853Z,0
2022-11-30T23:27:01.974Z,0
2022-11-30T23:29:28.061Z,0
2022-11-30T23:31:54.143Z,0
2022-11-30T23:34:20.300Z,0
2022-11-30T23:36:46.410Z,0
2022-11-30T23:39:11.486Z,0
2022-11-30T23:41:36.616Z,0
2022-11-30T23:44:01.727Z,0
2022-11-30T23:46:26.840Z,0
2022-11-30T23:48:52.906Z,0
2022-11-30T23:51:19.001Z,0
2022-11-30T23:53:45.115Z,0
2022-11-30T23:56:11.322Z,0
2022-11-30T23:58:36.324Z,0
